createdAt,value
2022-11-08T00:02:28.351Z,69.73
2022-11-08T00:07:48.260Z,69.91
2022-11-08T00:13:07.876Z,70.04
2022-11-08T00:18:09.221Z,70.06
2022-11-08T00:23:10.543Z,69.70
2022-11-08T00:28:11.883Z,69.97
2022-11-08T00:33:13.216Z,69.91
2022-11-08T00:38:14.746Z,69.82
2022-11-08T00:43:16.388Z,70.27
2022-11-08T00:48:18.275Z,70.16
2022-11-08T00:53:19.741Z,70.11
2022-11-08T00:58:24.930Z,70.49
2022-11-08T01:03:28.600Z,70.06
2022-11-08T01:08:29.962Z,70.28
2022-11-08T01:13:31.957Z,70.34
2022-11-08T01:18:33.416Z,70.43
2022-11-08T01:23:34.947Z,70.80
2022-11-08T01:28:36.358Z,70.53
2022-11-08T01:33:38.535Z,70.64
2022-11-08T01:38:40.426Z,70.96
2022-11-08T01:43:42.946Z,70.73
2022-11-08T01:48:56.136Z,70.73
2022-11-08T01:54:00.196Z,70.76
2022-11-08T01:59:03.593Z,70.70
2022-11-08T02:04:05.761Z,70.72
2022-11-08T02:09:10.627Z,70.58
2022-11-08T02:14:12.358Z,70.83
2022-11-08T02:19:22.475Z,70.40
2022-11-08T02:24:24.136Z,70.62
2022-11-08T02:29:34.447Z,70.77
2022-11-08T02:34:45.322Z,70.78
2022-11-08T02:39:47.870Z,70.73
2022-11-08T02:44:49.776Z,70.68
2022-11-08T02:49:51.199Z,70.77
2022-11-08T02:54:52.564Z,71.00
2022-11-08T02:59:53.932Z,70.77
2022-11-08T03:04:55.285Z,70.81
2022-11-08T03:09:56.645Z,70.83
2022-11-08T03:14:58.085Z,70.67
2022-11-08T03:19:59.689Z,70.77
2022-11-08T03:25:01.077Z,70.78
2022-11-08T03:30:02.593Z,70.88
2022-11-08T03:35:04.209Z,71.01
2022-11-08T03:40:06.178Z,71.00
2022-11-08T03:45:08.022Z,70.76
2022-11-08T03:50:09.923Z,70.93
2022-11-08T03:55:12.231Z,71.05
2022-11-08T04:00:16.685Z,70.76
2022-11-08T04:05:19.010Z,71.09
2022-11-08T04:10:20.348Z,71.02
2022-11-08T04:15:23.253Z,71.04
2022-11-08T04:20:43.234Z,70.93
2022-11-08T04:25:45.310Z,71.09
2022-11-08T04:30:52.055Z,70.88
2022-11-08T04:35:54.115Z,70.95
2022-11-08T04:41:02.727Z,71.36
2022-11-08T04:46:10.852Z,71.69
2022-11-08T04:51:17.828Z,71.72
2022-11-08T04:56:21.188Z,71.34
2022-11-08T05:01:25.380Z,71.30
2022-11-08T05:06:32.021Z,70.97
2022-11-08T05:11:33.427Z,71.55
2022-11-08T05:16:34.843Z,71.36
2022-11-08T05:21:54.587Z,71.19
2022-11-08T05:26:55.956Z,71.34
2022-11-08T05:31:57.422Z,71.37
2022-11-08T05:36:58.749Z,71.22
2022-11-08T05:42:00.166Z,71.67
2022-11-08T05:47:01.491Z,71.32
2022-11-08T05:52:03.103Z,71.31
2022-11-08T05:57:04.504Z,71.17
2022-11-08T06:02:05.953Z,71.42
2022-11-08T06:07:07.567Z,71.78
2022-11-08T06:12:09.259Z,71.38
2022-11-08T06:17:10.607Z,71.55
2022-11-08T06:22:12.107Z,71.63
2022-11-08T06:27:14.538Z,71.47
2022-11-08T06:32:16.002Z,71.76
2022-11-08T06:37:17.424Z,71.21
2022-11-08T06:42:18.831Z,71.79
2022-11-08T06:47:20.268Z,71.58
2022-11-08T06:52:21.640Z,72.00
2022-11-08T06:57:22.986Z,71.74
2022-11-08T07:02:24.484Z,71.65
2022-11-08T07:07:25.927Z,71.67
2022-11-08T07:12:27.261Z,71.71
2022-11-08T07:17:28.610Z,72.05
2022-11-08T07:22:29.970Z,71.35
2022-11-08T07:27:31.314Z,71.43
2022-11-08T07:32:32.666Z,71.58
2022-11-08T07:37:34.079Z,71.75
2022-11-08T07:43:05.139Z,71.31
2022-11-08T07:48:09.762Z,71.20
2022-11-08T07:53:12.717Z,71.58
2022-11-08T07:58:15.245Z,71.51
2022-11-08T08:03:17.251Z,71.54
2022-11-08T08:08:19.676Z,71.58
2022-11-08T08:13:21.273Z,71.52
2022-11-08T08:18:22.898Z,71.47
2022-11-08T08:23:24.428Z,71.53
2022-11-08T08:28:25.828Z,71.73
2022-11-08T08:33:34.086Z,71.58
2022-11-08T08:38:41.492Z,71.70
2022-11-08T08:43:45.590Z,71.91
2022-11-08T08:48:46.944Z,72.20
2022-11-08T08:53:48.293Z,72.38
2022-11-08T09:04:11.457Z,72.24
2022-11-08T09:09:12.776Z,71.90
2022-11-08T09:14:14.484Z,72.04
2022-11-08T09:19:15.867Z,71.66
2022-11-08T09:24:17.250Z,71.81
2022-11-08T09:29:18.740Z,71.28
2022-11-08T09:34:21.717Z,71.33
2022-11-08T09:39:23.358Z,71.61
2022-11-08T09:44:59.159Z,71.56
2022-11-08T09:50:26.907Z,71.13
2022-11-08T09:55:35.051Z,70.75
2022-11-08T10:00:40.147Z,70.34
2022-11-08T10:05:49.044Z,69.46
2022-11-08T10:11:07.379Z,68.38
2022-11-08T10:16:17.697Z,67.80
2022-11-08T10:21:37.749Z,67.40
2022-11-08T10:26:45.684Z,66.45
2022-11-08T10:31:49.525Z,66.32
2022-11-08T10:37:02.749Z,65.67
2022-11-08T10:42:15.390Z,65.06
2022-11-08T10:47:29.255Z,64.42
2022-11-08T10:52:36.993Z,63.51
2022-11-08T10:57:42.588Z,62.93
2022-11-08T11:02:45.719Z,62.03
2022-11-08T11:08:00.750Z,61.36
2022-11-08T11:13:18.897Z,60.48
2022-11-08T11:18:33.094Z,60.30
2022-11-08T11:23:39.308Z,59.57
2022-11-08T11:28:59.431Z,59.31
2022-11-08T11:34:26.638Z,59.21
2022-11-08T11:39:37.246Z,58.97
2022-11-08T11:45:17.393Z,59.21
2022-11-08T11:50:38.700Z,58.92
2022-11-08T11:56:03.571Z,58.42
2022-11-08T12:01:25.168Z,58.41
2022-11-08T12:06:40.620Z,58.27
2022-11-08T12:12:14.447Z,58.33
2022-11-08T12:18:02.764Z,58.49
2022-11-08T12:23:17.843Z,58.75
2022-11-08T12:28:41.955Z,58.46
2022-11-08T12:33:57.652Z,58.55
2022-11-08T12:39:40.881Z,58.62
2022-11-08T12:45:08.707Z,58.64
2022-11-08T12:50:24.038Z,59.31
2022-11-08T12:55:34.466Z,58.86
2022-11-08T13:00:39.296Z,58.84
2022-11-08T13:05:54.408Z,58.90
2022-11-08T13:11:03.665Z,59.10
2022-11-08T13:16:25.459Z,59.20
2022-11-08T13:21:38.462Z,59.12
2022-11-08T13:26:43.460Z,59.13
2022-11-08T13:31:57.086Z,58.87
2022-11-08T13:37:36.245Z,58.99
2022-11-08T13:42:56.209Z,59.30
2022-11-08T13:48:03.069Z,58.86
2022-11-08T13:53:20.117Z,58.64
2022-11-08T13:58:45.479Z,58.52
2022-11-08T14:03:46.809Z,58.31
2022-11-08T14:09:12.880Z,58.21
2022-11-08T14:14:23.722Z,57.62
2022-11-08T14:19:27.316Z,57.66
2022-11-08T14:24:37.141Z,57.51
2022-11-08T14:29:38.564Z,57.31
2022-11-08T14:34:40.017Z,57.25
2022-11-08T14:39:46.214Z,57.55
2022-11-08T14:44:47.940Z,57.78
2022-11-08T14:49:49.345Z,57.75
2022-11-08T14:55:11.320Z,57.86
2022-11-08T15:00:12.750Z,58.16
2022-11-08T15:05:32.076Z,57.78
2022-11-08T15:10:33.971Z,58.21
2022-11-08T15:15:35.349Z,58.19
2022-11-08T15:20:37.165Z,58.19
2022-11-08T15:25:38.691Z,58.18
2022-11-08T15:30:43.278Z,57.96
2022-11-08T15:35:46.981Z,58.05
2022-11-08T15:40:53.990Z,58.07
2022-11-08T15:45:55.497Z,57.68
2022-11-08T15:50:57.964Z,57.34
2022-11-08T15:56:04.688Z,58.11
2022-11-08T16:01:06.710Z,58.89
2022-11-08T16:06:11.593Z,59.22
2022-11-08T16:11:21.799Z,59.60
2022-11-08T16:16:23.248Z,60.08
2022-11-08T16:21:24.784Z,60.08
2022-11-08T16:26:26.223Z,60.15
2022-11-08T16:31:27.591Z,60.05
2022-11-08T16:36:29.234Z,59.92
2022-11-08T16:41:30.578Z,59.70
2022-11-08T16:46:31.952Z,59.63
2022-11-08T16:51:33.748Z,59.90
2022-11-08T16:56:35.118Z,60.09
2022-11-08T17:01:37.048Z,60.44
2022-11-08T17:06:38.614Z,60.78
2022-11-08T17:11:40.730Z,61.07
2022-11-08T17:16:42.167Z,61.55
2022-11-08T17:21:45.071Z,61.69
2022-11-08T17:26:46.985Z,62.01
2022-11-08T17:31:49.454Z,61.90
2022-11-08T17:36:52.777Z,62.44
2022-11-08T17:41:54.193Z,62.51
2022-11-08T17:46:55.577Z,62.57
2022-11-08T17:51:56.961Z,62.75
2022-11-08T17:56:58.324Z,62.93
2022-11-08T18:01:59.811Z,63.08
2022-11-08T18:07:01.325Z,63.41
2022-11-08T18:12:02.885Z,63.61
2022-11-08T18:17:05.006Z,63.79
2022-11-08T18:22:06.389Z,64.00
2022-11-08T18:27:07.739Z,64.23
2022-11-08T18:32:09.157Z,64.07
2022-11-08T18:37:10.759Z,64.49
2022-11-08T18:42:12.127Z,64.46
2022-11-08T18:47:13.449Z,64.39
2022-11-08T18:52:15.212Z,64.72
2022-11-08T18:57:16.696Z,64.74
2022-11-08T19:02:18.166Z,64.78
2022-11-08T19:07:20.127Z,65.00
2022-11-08T19:12:21.520Z,64.96
2022-11-08T19:17:22.865Z,65.30
2022-11-08T19:22:24.289Z,65.99
2022-11-08T19:27:25.767Z,65.89
2022-11-08T19:32:27.149Z,65.61
2022-11-08T19:37:28.501Z,65.86
2022-11-08T19:42:29.984Z,65.92
2022-11-08T19:47:31.359Z,65.75
2022-11-08T19:52:32.714Z,65.79
2022-11-08T19:57:34.941Z,65.82
2022-11-08T20:02:37.683Z,66.81
2022-11-08T20:07:39.025Z,66.63
2022-11-08T20:12:40.558Z,66.84
2022-11-08T20:17:42.574Z,66.49
2022-11-08T20:22:47.967Z,66.73
2022-11-08T20:27:50.686Z,66.55
2022-11-08T20:32:52.031Z,66.50
2022-11-08T20:37:56.964Z,66.85
2022-11-08T20:42:58.309Z,66.67
2022-11-08T20:48:02.693Z,67.01
2022-11-08T20:53:04.378Z,67.16
2022-11-08T20:58:05.757Z,66.99
2022-11-08T21:03:07.114Z,66.79
2022-11-08T21:08:57.998Z,67.17
2022-11-08T21:13:32.713Z,67.21
2022-11-08T21:18:35.370Z,67.64
2022-11-08T21:23:39.234Z,67.60
2022-11-08T21:28:41.285Z,67.62
2022-11-08T21:33:43.223Z,68.51
2022-11-08T21:38:44.807Z,68.61
2022-11-08T21:43:47.498Z,68.59
2022-11-08T21:48:57.259Z,68.93
2022-11-08T21:53:59.126Z,69.18
2022-11-08T21:59:01.279Z,69.45
2022-11-08T22:04:02.614Z,69.41
2022-11-08T22:09:04.124Z,69.48
2022-11-08T22:14:05.479Z,69.54
2022-11-08T22:19:06.982Z,69.69
2022-11-08T22:24:14.026Z,69.72
2022-11-08T22:29:16.234Z,69.81
2022-11-08T22:34:17.597Z,69.94
2022-11-08T22:39:21.970Z,70.00
2022-11-08T22:44:23.385Z,69.98
2022-11-08T22:49:24.726Z,70.22
2022-11-08T22:54:26.567Z,70.17
2022-11-08T22:59:28.003Z,70.30
2022-11-08T23:04:29.343Z,70.41
2022-11-08T23:09:30.675Z,70.04
2022-11-08T23:15:07.191Z,70.52
2022-11-08T23:20:27.662Z,70.65
2022-11-08T23:25:29.060Z,70.67
2022-11-08T23:30:48.942Z,70.42
2022-11-08T23:36:11.148Z,70.84
2022-11-08T23:41:31.219Z,70.68
2022-11-08T23:46:32.687Z,70.79
2022-11-08T23:51:34.199Z,71.06
2022-11-08T23:56:35.885Z,70.96
